フナフティ島 の空港の天気 - METARとTAF

フナフティ国際空港 ( NGFU / FUN ) - ツバル フナフティ島
飛行場実況気象(Metar)
観測時間12/16 04:00 TVT (12/15 16:00 UTC)
風向・風速西 3m/s
視程10km以上
天気現象
少しの雲 雲底高度 460m
全天の4割程度の雲 雲底高度 550m
全天の8割程度の雲 雲底高度 9140m
気温28℃
湿度89%
気圧1006hPa
METARNGFU 151600Z 27005KT 9999 FEW015CB SCT018TCU BKN300 28/26 Q1006
過去の天気等 Google飛行場航空写真 Wunderground天気予報

過去48時間のMETAR

飛行場予報(TAF)
発表時間: 12/16 05:14 TVT (12/15 17:14 UTC)
予報対象時間: 16日6時 TVT ~ 17日6時 TVT
風向・風速西北西 3m/s
視程10km以上
天気現象弱いしゅう雨
全天の4割程度の雲 雲底高度 550m
16日6時 TVT ~ 17日6時 TVT に 確率 30% で一時的に
視程3000m
天気現象雷雨
全天の8割程度の雲 雲底高度 460m
少しの積乱雲 雲底高度 550m
TAF NGFU 151714Z 1518/1618 29005KT 9999 -SHRA SCT018
PROB30 TEMPO 1518/1618 3000 TSRA BKN015 FEW018CB